Time;durP1;ratioP1;P1;durP2;ratioP2;P2;SDS_P1;SDS_P2;PMS_P1;PMS_P2;Temp;Humidity;BMP_temperature;BMP_pressure;BME280_temperature;BME280_humidity;BME280_pressure;Samples;Min_cycle;Max_cycle;Signal;HPM_P1;HPM_P2
2023/08/31 00:00:44;;;;;;;4.70;1.65;;;;;;;20.01;51.51;93428.03;5024751;28;20029;-80
2023/08/31 00:03:10;;;;;;;8.88;1.92;;;;;;;20.01;51.49;93435.38;5024912;28;20030;-79
2023/08/31 00:05:39;;;;;;;4.90;1.65;;;;;;;20.00;51.46;93433.81;5025013;28;20060;-79
2023/08/31 00:08:06;;;;;;;8.52;2.03;;;;;;;19.97;51.71;93435.34;5025424;28;20243;-79
2023/08/31 00:10:31;;;;;;;4.80;1.92;;;;;;;19.99;52.27;93434.97;5025708;28;20018;-78
2023/08/31 00:12:57;;;;;;;6.28;1.63;;;;;;;19.92;52.47;93440.34;5025756;28;20042;-78
2023/08/31 00:15:23;;;;;;;6.55;1.75;;;;;;;19.90;52.27;93443.44;5025406;28;20138;-80
2023/08/31 00:17:49;;;;;;;5.15;2.42;;;;;;;19.95;52.60;93442.31;5025606;28;20040;-80
2023/08/31 00:20:14;;;;;;;5.75;1.75;;;;;;;19.94;52.24;93446.16;5024238;28;20034;-80
2023/08/31 00:22:40;;;;;;;3.70;1.63;;;;;;;19.90;52.31;93434.56;5024485;28;20025;-80
2023/08/31 00:25:08;;;;;;;5.78;2.22;;;;;;;19.94;52.61;93443.44;5025695;28;20093;-80
2023/08/31 00:27:34;;;;;;;7.05;2.00;;;;;;;19.99;52.57;93445.78;5025359;28;20045;-80
2023/08/31 00:29:59;;;;;;;7.60;2.00;;;;;;;19.97;52.82;93445.41;5025203;28;20018;-80
2023/08/31 00:32:25;;;;;;;9.48;2.00;;;;;;;19.99;52.75;93443.09;5025318;28;20013;-80
2023/08/31 00:34:50;;;;;;;4.22;1.70;;;;;;;19.95;52.59;93453.13;5025428;28;20021;-80
2023/08/31 00:37:16;;;;;;;9.20;2.20;;;;;;;19.96;52.69;93451.94;5025214;28;20018;-79
2023/08/31 00:39:43;;;;;;;10.40;2.20;;;;;;;19.99;52.56;93453.91;5025145;28;20306;-80
2023/08/31 00:42:09;;;;;;;9.35;1.75;;;;;;;19.92;52.79;93464.69;5025108;28;20026;-80
2023/08/31 00:44:34;;;;;;;4.97;1.58;;;;;;;19.84;52.96;93464.69;5025044;28;20033;-80
2023/08/31 00:47:00;;;;;;;3.80;1.77;;;;;;;19.71;53.17;93460.75;5025142;28;20251;-80
2023/08/31 00:49:27;;;;;;;10.65;3.42;;;;;;;19.68;53.55;93466.13;5024911;28;20144;-79
2023/08/31 00:51:53;;;;;;;7.20;2.22;;;;;;;19.70;53.29;93467.31;5024767;28;20021;-79
2023/08/31 00:54:18;;;;;;;3.63;1.50;;;;;;;19.68;53.75;93472.28;5024879;28;20303;-78
2023/08/31 00:56:45;;;;;;;11.43;2.13;;;;;;;19.70;53.62;93466.50;5024869;28;20101;-78
2023/08/31 00:59:10;;;;;;;6.28;1.85;;;;;;;19.76;53.62;93468.53;5024929;28;20251;-78
2023/08/31 01:02:20;;;;;;;6.88;2.05;;;;;;;19.79;53.04;93470.44;5023624;28;20026;-78
2023/08/31 01:05:03;;;;;;;6.00;1.90;;;;;;;19.76;53.27;93471.22;5024237;28;20040;-79
2023/08/31 01:07:48;;;;;;;5.28;2.00;;;;;;;19.79;53.59;93472.38;5024650;28;20033;-79
2023/08/31 01:10:36;;;;;;;5.05;1.77;;;;;;;19.81;53.58;93470.06;5024643;28;20024;-79
2023/08/31 01:13:11;;;;;;;4.88;1.55;;;;;;;19.78;53.45;93468.91;5024501;28;20080;-79
2023/08/31 01:15:37;;;;;;;5.93;1.55;;;;;;;19.79;53.98;93473.16;5024360;28;20029;-79
2023/08/31 01:18:05;;;;;;;3.22;1.48;;;;;;;19.79;54.63;93466.97;5023338;28;20045;-79
2023/08/31 01:20:49;;;;;;;7.43;2.20;;;;;;;19.76;53.47;93476.63;5024521;28;20024;-79
2023/08/31 01:23:18;;;;;;;7.47;1.80;;;;;;;19.73;55.07;93474.66;5024361;28;20026;-78
2023/08/31 01:25:45;;;;;;;5.25;1.50;;;;;;;19.70;54.59;93480.81;5024327;28;20056;-78
2023/08/31 01:28:12;;;;;;;8.15;1.92;;;;;;;19.65;54.70;93475.75;5024306;28;20025;-78
2023/08/31 01:30:37;;;;;;;7.10;1.88;;;;;;;19.66;55.15;93477.31;5024304;28;20018;-77
2023/08/31 01:33:03;;;;;;;9.80;3.25;;;;;;;19.67;55.14;93468.06;5023975;28;20022;-78
2023/08/31 01:35:41;;;;;;;6.32;2.22;;;;;;;19.67;55.07;93467.28;5024307;28;20036;-79
2023/08/31 01:38:09;;;;;;;5.15;1.67;;;;;;;19.63;55.33;93462.63;5024153;28;20029;-79
2023/08/31 01:40:36;;;;;;;4.10;1.73;;;;;;;19.62;55.39;93468.41;5023967;28;20021;-79
2023/08/31 01:43:04;;;;;;;8.35;1.63;;;;;;;19.63;55.53;93461.84;5024126;28;20041;-78
2023/08/31 01:45:31;;;;;;;9.13;1.88;;;;;;;19.58;55.49;93473.81;5023934;28;20308;-78
2023/08/31 01:47:57;;;;;;;6.10;1.98;;;;;;;19.51;56.05;93462.19;5023965;28;20049;-78
2023/08/31 01:50:22;;;;;;;6.18;2.08;;;;;;;19.45;56.44;93462.53;5024048;28;20017;-78
2023/08/31 01:52:48;;;;;;;6.22;2.28;;;;;;;19.41;56.49;93453.63;5022638;28;20026;-78
2023/08/31 01:55:15;;;;;;;4.40;1.55;;;;;;;19.38;56.81;93464.44;5023971;28;20033;-78
2023/08/31 01:57:41;;;;;;;5.05;2.05;;;;;;;19.33;56.65;93470.19;5023850;28;20032;-78
2023/08/31 02:00:10;;;;;;;10.48;2.22;;;;;;;19.29;57.29;93475.56;5023624;28;20220;-78
2023/08/31 02:02:36;;;;;;;4.40;1.77;;;;;;;19.24;57.89;93476.72;5023706;28;20117;-78
2023/08/31 02:05:04;;;;;;;6.95;1.67;;;;;;;19.17;58.14;93481.28;5022088;28;20072;-78
2023/08/31 02:07:29;;;;;;;5.43;1.70;;;;;;;19.06;58.31;93486.63;5023556;28;20025;-78
2023/08/31 02:09:55;;;;;;;4.38;1.55;;;;;;;18.97;58.42;93489.66;5023489;28;20335;-78
2023/08/31 02:12:20;;;;;;;4.97;1.60;;;;;;;18.88;58.91;93488.44;5022144;28;20029;-78
2023/08/31 02:14:46;;;;;;;6.63;2.03;;;;;;;18.79;58.88;93499.56;5023566;28;20021;-78
2023/08/31 02:17:11;;;;;;;7.25;2.25;;;;;;;18.72;58.97;93499.44;5023461;28;20037;-78
2023/08/31 02:19:36;;;;;;;6.20;1.85;;;;;;;18.70;59.53;93507.91;5023308;28;20025;-78
2023/08/31 02:22:05;;;;;;;8.25;2.17;;;;;;;18.64;59.92;93496.72;5023087;28;20105;-78
2023/08/31 02:24:30;;;;;;;9.13;2.40;;;;;;;18.60;60.18;93487.81;5023389;28;20025;-78
2023/08/31 02:26:56;;;;;;;3.35;1.30;;;;;;;18.58;59.86;93495.50;5023388;28;20033;-78
2023/08/31 02:29:21;;;;;;;6.97;1.77;;;;;;;18.55;60.24;93495.47;5023226;28;20197;-78
2023/08/31 02:31:47;;;;;;;4.38;1.90;;;;;;;18.50;60.51;93488.50;5023241;28;20014;-78
2023/08/31 02:34:12;;;;;;;6.20;1.90;;;;;;;18.49;60.85;93486.91;5023502;28;20049;-77
2023/08/31 02:36:38;;;;;;;7.00;2.22;;;;;;;18.36;60.72;93483.72;5023263;28;20029;-78
2023/08/31 02:39:03;;;;;;;7.35;1.80;;;;;;;18.35;60.45;93478.69;5023103;28;20024;-78
2023/08/31 02:41:29;;;;;;;5.03;1.80;;;;;;;18.30;60.31;93487.91;5023155;28;20061;-80
2023/08/31 02:43:55;;;;;;;17.02;2.03;;;;;;;18.29;60.27;93489.03;5022901;28;20025;-80
2023/08/31 02:46:20;;;;;;;5.00;1.65;;;;;;;18.27;60.66;93490.56;5023021;28;20289;-80
2023/08/31 02:48:46;;;;;;;5.22;2.00;;;;;;;18.22;60.52;93494.38;5023117;28;20093;-80
2023/08/31 02:51:11;;;;;;;5.28;1.95;;;;;;;18.19;60.92;93489.72;5023086;28;20025;-79
2023/08/31 02:53:37;;;;;;;5.43;1.70;;;;;;;18.19;60.95;93493.19;5021586;28;20029;-79
2023/08/31 02:56:02;;;;;;;5.43;1.65;;;;;;;18.15;60.44;93500.47;5022920;28;20030;-80
2023/08/31 02:58:28;;;;;;;9.25;2.50;;;;;;;18.13;59.90;93502.75;5022901;28;20285;-78
2023/08/31 03:00:54;;;;;;;8.02;2.22;;;;;;;18.06;60.41;93508.09;5022937;28;20072;-79
2023/08/31 03:03:19;;;;;;;4.55;1.92;;;;;;;18.00;60.73;93509.56;5022847;28;20080;-79
2023/08/31 03:05:45;;;;;;;6.72;2.65;;;;;;;18.02;60.94;93513.44;5022956;28;20308;-79
2023/08/31 03:08:11;;;;;;;6.40;1.80;;;;;;;17.97;61.09;93521.84;5022903;28;20049;-79
2023/08/31 03:10:37;;;;;;;4.65;1.70;;;;;;;17.99;60.84;93526.84;5022707;28;20097;-79
2023/08/31 03:13:03;;;;;;;14.52;1.50;;;;;;;17.98;61.12;93514.53;5022672;28;20240;-78
2023/08/31 03:15:29;;;;;;;4.25;1.65;;;;;;;17.93;60.71;93520.25;5022758;28;20026;-78
2023/08/31 03:17:54;;;;;;;6.90;2.20;;;;;;;17.91;60.84;93525.22;5025597;28;20032;-79
2023/08/31 03:20:20;;;;;;;5.28;1.77;;;;;;;17.87;60.72;93522.50;5026649;28;20022;-78
2023/08/31 03:22:45;;;;;;;8.40;1.77;;;;;;;17.83;61.28;93521.69;5026717;28;20343;-76
2023/08/31 03:25:11;;;;;;;6.20;1.90;;;;;;;17.78;61.86;93520.03;5026788;28;20022;-77
2023/08/31 03:27:36;;;;;;;8.13;2.00;;;;;;;17.79;61.73;93516.22;5026424;28;20096;-77
2023/08/31 03:30:03;;;;;;;6.25;1.73;;;;;;;17.76;61.60;93519.63;5026847;28;20026;-77
2023/08/31 03:32:28;;;;;;;6.40;1.90;;;;;;;17.74;62.03;93513.84;5025276;28;20029;-77
2023/08/31 03:34:54;;;;;;;7.97;2.42;;;;;;;17.70;61.56;93517.63;5026757;28;20041;-77
2023/08/31 03:37:21;;;;;;;8.13;2.22;;;;;;;17.74;61.87;93511.13;5026263;28;20029;-77
2023/08/31 03:39:49;;;;;;;12.35;2.13;;;;;;;17.74;61.78;93524.63;5026458;28;20021;-78
2023/08/31 03:42:15;;;;;;;7.18;2.28;;;;;;;17.75;61.87;93515.41;5026428;28;20056;-76
2023/08/31 03:44:41;;;;;;;10.23;3.08;;;;;;;17.76;61.95;93522.31;5026841;28;20014;-77
2023/08/31 03:47:06;;;;;;;15.02;3.00;;;;;;;17.75;61.96;93526.19;5025917;28;20017;-79
2023/08/31 03:49:33;;;;;;;11.07;2.35;;;;;;;17.76;62.45;93537.72;5025086;28;20212;-77
2023/08/31 03:51:59;;;;;;;18.50;3.50;;;;;;;17.76;62.22;93535.81;5026075;28;20037;-79
2023/08/31 03:54:24;;;;;;;11.00;3.20;;;;;;;17.73;62.02;93536.56;5025931;28;20034;-79
2023/08/31 03:56:50;;;;;;;8.73;2.83;;;;;;;17.71;62.46;93533.44;5026123;28;20025;-80
2023/08/31 03:59:16;;;;;;;7.38;3.03;;;;;;;17.72;62.17;93542.31;5025757;28;20037;-78
2023/08/31 04:01:41;;;;;;;6.15;2.13;;;;;;;17.74;62.24;93548.88;5026168;28;20030;-80
2023/08/31 04:04:07;;;;;;;7.18;2.15;;;;;;;17.73;62.32;93550.03;5025770;28;20037;-79
2023/08/31 04:09:58;;;;;;;5.93;2.42;;;;;;;17.74;62.99;93578.53;5022916;28;20022;-79
2023/08/31 04:12:23;;;;;;;13.48;2.05;;;;;;;17.71;62.47;93573.88;5023977;28;20137;-79
2023/08/31 04:14:49;;;;;;;12.38;2.53;;;;;;;17.73;62.16;93576.22;5025329;28;20022;-79
2023/08/31 04:17:14;;;;;;;11.68;2.35;;;;;;;17.72;62.90;93570.03;5025416;28;20017;-79
2023/08/31 04:19:40;;;;;;;10.80;2.53;;;;;;;17.79;63.13;93578.22;5025238;28;20021;-80
2023/08/31 04:22:05;;;;;;;8.82;2.05;;;;;;;17.82;62.66;93590.19;5025138;28;20030;-79
2023/08/31 04:24:31;;;;;;;9.48;2.42;;;;;;;17.79;62.43;93586.31;5024469;28;20078;-78
2023/08/31 04:26:56;;;;;;;11.80;2.83;;;;;;;17.82;62.96;93596.34;5022704;28;20037;-78
2023/08/31 04:29:22;;;;;;;23.10;3.17;;;;;;;17.78;62.48;93594.75;5023078;28;20068;-77
2023/08/31 04:31:47;;;;;;;5.97;2.13;;;;;;;17.84;63.11;93598.72;5023960;28;20022;-77
2023/08/31 04:34:13;;;;;;;15.25;2.97;;;;;;;17.86;62.84;93607.22;5022599;28;20187;-76
2023/08/31 04:36:38;;;;;;;7.95;2.60;;;;;;;17.83;62.39;93603.34;5024006;28;20029;-86
2023/08/31 04:39:04;;;;;;;11.95;2.05;;;;;;;17.78;62.56;93605.53;5023027;28;20018;-84
2023/08/31 04:41:30;;;;;;;9.10;2.20;;;;;;;17.77;63.57;93604.00;5025014;28;20113;-85
2023/08/31 04:43:56;;;;;;;16.23;2.78;;;;;;;17.81;64.17;93610.97;5024958;28;20093;-84
2023/08/31 04:46:21;;;;;;;8.18;2.65;;;;;;;17.88;64.37;93609.53;5024945;28;20025;-84
2023/08/31 04:48:47;;;;;;;11.55;2.67;;;;;;;17.87;64.36;93610.69;5023677;28;20056;-85
2023/08/31 04:51:37;;;;;;;12.98;2.53;;;;;;;17.94;63.84;93613.47;5023744;28;20049;-85
2023/08/31 04:54:02;;;;;;;20.00;2.72;;;;;;;18.00;64.07;93612.03;5024664;28;20296;-84
2023/08/31 04:56:33;;;;;;;15.25;3.15;;;;;;;18.04;64.41;93608.22;5024627;28;20048;-85
2023/08/31 04:58:58;;;;;;;16.05;2.83;;;;;;;18.10;64.32;93616.00;5024757;28;20068;-84
2023/08/31 05:01:24;;;;;;;24.67;3.28;;;;;;;18.22;64.16;93604.97;5024959;28;20030;-84
2023/08/31 05:03:50;;;;;;;13.30;2.78;;;;;;;18.34;63.86;93602.03;5024604;28;20018;-84
2023/08/31 05:06:15;;;;;;;14.07;2.13;;;;;;;18.47;63.28;93607.94;5024841;28;20048;-84
2023/08/31 05:08:41;;;;;;;16.77;2.67;;;;;;;18.57;62.66;93607.28;5024828;28;20059;-84
2023/08/31 05:11:07;;;;;;;18.48;2.67;;;;;;;18.68;62.38;93607.38;5024330;28;20037;-85
2023/08/31 05:13:32;;;;;;;11.80;2.35;;;;;;;18.82;61.04;93607.56;5024723;28;20077;-85
2023/08/31 05:15:58;;;;;;;7.00;2.30;;;;;;;18.94;59.16;93608.44;5023567;28;20028;-84
2023/08/31 05:18:23;;;;;;;8.82;1.85;;;;;;;19.02;58.12;93610.84;5023137;28;20037;-85
2023/08/31 05:20:49;;;;;;;7.18;1.60;;;;;;;19.09;57.49;93615.53;5024371;28;20025;-84
2023/08/31 05:23:14;;;;;;;6.55;1.50;;;;;;;19.19;57.32;93612.16;5024746;28;20022;-85
2023/08/31 05:25:44;;;;;;;8.70;2.20;;;;;;;19.29;57.17;93613.38;5023517;28;20248;-85
2023/08/31 05:28:10;;;;;;;7.45;2.00;;;;;;;19.35;55.64;93617.28;5024400;28;20034;-85
2023/08/31 05:30:35;;;;;;;6.05;1.45;;;;;;;19.42;55.04;93609.25;5024328;28;20092;-85
2023/08/31 05:33:01;;;;;;;5.20;2.65;;;;;;;19.47;56.96;93613.50;5024296;28;20056;-85
2023/08/31 05:35:27;;;;;;;8.63;1.83;;;;;;;19.54;56.13;93610.09;5023059;28;20028;-85
2023/08/31 05:37:52;;;;;;;13.93;2.67;;;;;;;19.58;56.45;93608.19;5024083;28;20036;-85
2023/08/31 05:40:18;;;;;;;9.52;2.10;;;;;;;19.68;55.83;93599.34;5021865;28;20193;-85
2023/08/31 05:42:43;;;;;;;12.15;2.65;;;;;;;19.69;55.10;93609.03;5023913;28;20110;-85
2023/08/31 05:45:09;;;;;;;12.10;2.33;;;;;;;19.74;55.25;93606.03;5023769;28;20018;-84
2023/08/31 05:47:35;;;;;;;15.82;2.03;;;;;;;19.83;55.38;93608.38;5023692;28;20026;-85
2023/08/31 05:50:01;;;;;;;19.10;3.28;;;;;;;19.91;55.40;93614.63;5022770;28;20018;-85
2023/08/31 05:52:27;;;;;;;15.13;2.60;;;;;;;19.98;55.04;93610.00;5022792;28;20316;-85
2023/08/31 05:54:52;;;;;;;13.60;2.67;;;;;;;20.09;54.96;93610.06;5023932;28;20032;-85
2023/08/31 05:57:20;;;;;;;12.80;1.83;;;;;;;20.12;54.67;93608.53;5023620;28;20052;-85
2023/08/31 05:59:46;;;;;;;9.57;2.85;;;;;;;20.17;54.11;93608.94;5023652;28;20076;-85
2023/08/31 06:02:12;;;;;;;13.32;2.38;;;;;;;20.25;53.06;93612.44;5023851;28;20025;-85
2023/08/31 06:04:38;;;;;;;13.13;2.58;;;;;;;20.30;53.11;93609.38;5022837;28;20220;-85
2023/08/31 06:07:03;;;;;;;11.60;2.97;;;;;;;20.40;53.48;93613.28;5022597;28;20021;-85
2023/08/31 06:09:29;;;;;;;5.97;1.88;;;;;;;20.44;52.45;93628.38;5023687;28;20020;-85
2023/08/31 06:12:06;;;;;;;12.68;1.92;;;;;;;20.49;51.94;93626.47;5099413;27;20706;-86
2023/08/31 06:14:32;;;;;;;7.95;1.75;;;;;;;20.50;52.26;93622.63;5100032;28;20323;-85
2023/08/31 06:16:58;;;;;;;8.48;2.00;;;;;;;20.50;51.77;93620.69;5100206;28;20036;-86
2023/08/31 06:19:26;;;;;;;6.75;1.80;;;;;;;20.42;51.90;93633.41;5100267;28;20091;-86
2023/08/31 06:21:52;;;;;;;10.07;2.55;;;;;;;20.44;51.96;93633.78;5100152;28;20020;-86
2023/08/31 06:24:17;;;;;;;16.48;6.15;;;;;;;20.50;52.61;93631.50;5099873;28;20380;-85
2023/08/31 06:26:42;;;;;;;15.00;2.70;;;;;;;20.56;52.70;93642.75;5082076;28;20043;-85
2023/08/31 06:29:11;;;;;;;8.05;2.25;;;;;;;20.62;51.88;93647.44;5099019;28;20036;-85
2023/08/31 06:31:37;;;;;;;9.95;2.40;;;;;;;20.68;51.90;93649.75;5100200;28;20114;-85
2023/08/31 06:34:04;;;;;;;13.43;2.88;;;;;;;20.69;51.85;93643.19;5081671;28;20309;-86
2023/08/31 06:36:30;;;;;;;15.10;3.15;;;;;;;20.74;51.93;93648.22;5099696;28;20025;-86
2023/08/31 06:38:55;;;;;;;15.50;3.05;;;;;;;20.80;52.21;93652.09;5099875;28;20307;-86
2023/08/31 06:41:21;;;;;;;12.90;2.63;;;;;;;20.83;51.56;93651.34;5099736;28;20039;-85
2023/08/31 06:43:46;;;;;;;7.13;2.40;;;;;;;20.82;51.40;93647.88;5081348;28;20046;-86
2023/08/31 06:46:12;;;;;;;11.40;3.20;;;;;;;20.93;51.52;93661.44;5099904;28;20020;-86
2023/08/31 06:48:37;;;;;;;11.10;2.20;;;;;;;20.91;51.38;93658.34;5099896;28;20087;-85
2023/08/31 06:51:03;;;;;;;13.60;2.53;;;;;;;20.91;51.59;93663.00;5100123;28;20016;-85
2023/08/31 06:53:33;;;;;;;8.13;3.45;;;;;;;21.00;51.61;93664.19;5099737;28;20025;-85
2023/08/31 06:55:58;;;;;;;11.25;2.97;;;;;;;21.06;51.21;93663.78;5099209;28;20016;-85
2023/08/31 06:58:24;;;;;;;9.30;2.65;;;;;;;21.13;51.36;93661.09;5098490;28;20023;-85
2023/08/31 07:00:49;;;;;;;10.68;2.30;;;;;;;21.13;50.70;93664.59;5099524;28;20083;-85
2023/08/31 07:03:15;;;;;;;6.07;2.40;;;;;;;21.16;50.93;93668.47;5099522;28;20344;-85
2023/08/31 07:05:43;;;;;;;9.68;3.20;;;;;;;21.13;50.80;93666.53;5099362;28;20341;-85
2023/08/31 07:08:09;;;;;;;8.40;2.53;;;;;;;21.18;50.55;93663.44;5081399;28;20247;-86
2023/08/31 07:10:36;;;;;;;16.58;4.55;;;;;;;21.23;51.17;93668.47;5099165;28;20040;-85
2023/08/31 07:13:03;;;;;;;11.32;3.15;;;;;;;21.36;50.30;93666.16;5099154;28;20017;-84
2023/08/31 07:15:29;;;;;;;15.48;3.40;;;;;;;21.36;50.59;93666.94;5099031;28;20024;-84
2023/08/31 07:17:54;;;;;;;24.73;4.28;;;;;;;21.49;50.46;93664.63;5099223;28;20024;-88
2023/08/31 07:20:20;;;;;;;10.52;3.78;;;;;;;21.59;50.10;93663.84;5100029;28;20020;-90
2023/08/31 07:22:45;;;;;;;20.55;3.20;;;;;;;21.69;49.69;93667.75;5071913;28;20315;-90
2023/08/31 07:25:11;;;;;;;11.82;3.78;;;;;;;21.82;49.28;93671.63;5068109;28;20043;-89
2023/08/31 07:27:37;;;;;;;13.50;3.10;;;;;;;21.91;48.70;93667.72;5086260;28;20020;-90
2023/08/31 07:30:07;;;;;;;10.77;2.75;;;;;;;21.94;48.55;93662.31;5086294;28;20028;-90
2023/08/31 07:32:32;;;;;;;8.05;2.35;;;;;;;22.08;47.52;93666.91;5086216;28;20036;-90
2023/08/31 07:34:58;;;;;;;12.48;2.33;;;;;;;22.18;47.24;93666.13;5068455;28;20323;-90
2023/08/31 07:37:24;;;;;;;12.23;2.00;;;;;;;22.28;43.70;93669.25;5086434;28;20285;-90
2023/08/31 07:39:49;;;;;;;13.38;1.63;;;;;;;22.40;43.64;93671.53;5086120;28;20276;-87
2023/08/31 07:42:15;;;;;;;8.63;1.95;;;;;;;22.52;42.68;93657.53;5067169;28;20231;-72
2023/08/31 07:44:41;;;;;;;6.95;1.60;;;;;;;22.57;43.33;93665.28;5085217;28;20095;-73
2023/08/31 07:47:07;;;;;;;12.45;1.77;;;;;;;22.65;43.48;93674.16;5085124;28;20027;-72
2023/08/31 07:49:33;;;;;;;4.43;1.58;;;;;;;22.68;42.94;93672.59;5084931;28;20020;-75
2023/08/31 07:51:58;;;;;;;6.85;1.67;;;;;;;22.75;42.30;93676.03;5084858;28;20092;-75
2023/08/31 07:54:23;;;;;;;5.32;1.50;;;;;;;22.79;42.52;93670.59;5085152;28;20287;-75
2023/08/31 07:56:49;;;;;;;9.02;2.13;;;;;;;22.86;43.15;93675.22;5084983;28;20039;-76
2023/08/31 07:59:15;;;;;;;5.15;1.45;;;;;;;22.93;42.53;93684.13;5084879;28;20070;-75
2023/08/31 08:01:41;;;;;;;5.13;1.38;;;;;;;22.97;41.90;93693.03;5084808;28;20098;-76
2023/08/31 08:04:06;;;;;;;6.82;1.80;;;;;;;23.01;40.90;93674.78;5083809;28;20095;-75
2023/08/31 08:06:32;;;;;;;5.00;1.70;;;;;;;23.08;41.16;93687.59;5084711;28;20227;-74
2023/08/31 08:08:57;;;;;;;5.63;1.70;;;;;;;23.10;40.64;93687.97;5084622;28;20028;-75
2023/08/31 08:11:23;;;;;;;8.30;3.10;;;;;;;23.13;38.63;93689.88;5084487;28;20100;-73
2023/08/31 08:13:48;;;;;;;11.10;3.22;;;;;;;23.18;37.61;93688.69;5084580;28;20208;-74
2023/08/31 08:16:14;;;;;;;7.10;2.83;;;;;;;23.22;38.84;93687.50;5084498;28;20228;-73
2023/08/31 08:18:40;;;;;;;8.65;2.55;;;;;;;23.17;39.24;93695.28;5084553;28;20024;-74
2023/08/31 08:21:06;;;;;;;7.20;2.67;;;;;;;23.21;39.85;93696.81;5084375;28;20036;-73
2023/08/31 08:23:31;;;;;;;9.90;4.43;;;;;;;23.16;35.61;93689.09;5084495;28;20413;-73
2023/08/31 08:25:59;;;;;;;9.25;4.20;;;;;;;23.21;35.28;93690.63;5084390;28;20024;-75
2023/08/31 08:28:25;;;;;;;9.45;4.07;;;;;;;23.26;35.77;93692.91;5084181;28;20062;-75
2023/08/31 08:30:51;;;;;;;10.13;4.43;;;;;;;23.33;36.01;93686.66;5084052;28;20040;-75
2023/08/31 08:33:16;;;;;;;11.25;4.72;;;;;;;23.37;35.06;93696.34;5065586;28;20138;-76
2023/08/31 08:35:41;;;;;;;7.07;3.78;;;;;;;23.47;35.58;93691.22;5084032;28;20025;-73
2023/08/31 08:38:07;;;;;;;10.10;4.38;;;;;;;23.50;36.94;93693.16;5083906;28;20020;-73
2023/08/31 08:40:34;;;;;;;8.57;3.78;;;;;;;23.54;35.76;93686.50;5084125;28;20138;-74
2023/08/31 08:43:01;;;;;;;8.82;3.38;;;;;;;23.58;36.74;93686.47;5083936;28;20042;-73
2023/08/31 08:45:36;;;;;;;10.10;3.30;;;;;;;23.64;37.83;93701.19;5083862;28;20016;-73
2023/08/31 08:48:05;;;;;;;7.32;3.20;;;;;;;23.70;36.19;93699.59;5083890;28;20024;-73
2023/08/31 08:50:33;;;;;;;8.18;3.40;;;;;;;23.67;37.12;93700.41;5083765;28;20269;-74
2023/08/31 08:53:00;;;;;;;7.15;3.60;;;;;;;23.71;36.79;93684.03;5083829;28;20029;-75
2023/08/31 08:55:25;;;;;;;6.97;3.50;;;;;;;23.84;37.10;93687.88;5065934;28;20029;-74
2023/08/31 08:57:50;;;;;;;7.18;4.05;;;;;;;23.92;35.24;93704.91;5083655;28;20037;-74
2023/08/31 09:00:16;;;;;;;8.07;3.67;;;;;;;24.01;35.04;93697.03;5065934;28;20103;-75
2023/08/31 09:02:42;;;;;;;6.70;3.78;;;;;;;24.02;33.67;93683.03;5083613;28;20024;-74
2023/08/31 09:05:08;;;;;;;6.55;3.28;;;;;;;24.03;33.60;93683.81;5083659;28;20024;-75
2023/08/31 09:08:12;;;;;;;7.30;3.47;;;;;;;23.88;33.16;93676.94;5083698;28;20048;-74
2023/08/31 09:10:44;;;;;;;8.50;4.13;;;;;;;23.94;34.63;93702.56;5064657;28;20040;-74
2023/08/31 09:13:10;;;;;;;;;;;;;;;24.08;34.26;93682.59;5083889;28;20020;-74
2023/08/31 09:15:57;;;;;;;7.18;3.15;;;;;;;24.08;33.99;93685.31;5083236;28;19904;-74
2023/08/31 09:18:25;;;;;;;7.45;3.70;;;;;;;24.10;33.94;93680.22;5083076;28;20035;-74
2023/08/31 09:20:51;;;;;;;7.55;3.50;;;;;;;24.21;34.00;93678.94;5083292;28;20226;-74
2023/08/31 09:23:17;;;;;;;5.97;3.35;;;;;;;24.32;34.14;93680.78;5083004;28;20028;-75
2023/08/31 09:25:52;;;;;;;6.63;3.55;;;;;;;24.37;34.27;93685.81;5065481;28;20028;-75
2023/08/31 09:28:19;;;;;;;6.57;3.67;;;;;;;24.46;34.77;93683.38;5083080;28;20042;-73
2023/08/31 09:30:47;;;;;;;7.13;3.28;;;;;;;24.54;33.84;93686.81;5082753;28;20048;-76
2023/08/31 09:33:16;;;;;;;9.70;3.95;;;;;;;24.49;34.01;93688.03;5083004;28;20318;-76
2023/08/31 09:35:48;;;;;;;8.35;3.40;;;;;;;24.47;34.21;93684.16;5083051;28;20315;-76
2023/08/31 09:38:15;;;;;;;6.45;3.33;;;;;;;24.50;33.35;93683.38;5082839;28;20043;-76
2023/08/31 09:40:40;;;;;;;7.63;3.33;;;;;;;24.53;32.96;93683.34;5065086;28;20058;-76
2023/08/31 09:43:05;;;;;;;6.72;3.47;;;;;;;24.52;32.91;93681.78;5082732;28;20241;-74
2023/08/31 09:45:33;;;;;;;6.93;3.85;;;;;;;24.58;32.70;93684.81;5082658;28;20028;-75
2023/08/31 09:48:03;;;;;;;9.35;4.05;;;;;;;24.67;32.82;93673.44;5064865;28;20028;-75
2023/08/31 09:50:30;;;;;;;6.72;3.55;;;;;;;24.66;32.07;93680.06;5082694;28;20032;-75
2023/08/31 09:53:01;;;;;;;7.43;3.40;;;;;;;24.70;32.76;93691.72;5082738;28;20115;-77
2023/08/31 09:55:29;;;;;;;8.40;3.50;;;;;;;24.82;33.12;93674.81;5081265;28;20032;-76
2023/08/31 09:57:56;;;;;;;7.28;3.30;;;;;;;24.81;33.00;93675.97;5081106;28;20099;-76
2023/08/31 10:00:22;;;;;;;7.32;3.67;;;;;;;24.73;33.22;93671.81;5081730;28;20028;-75
2023/08/31 10:02:49;;;;;;;7.82;4.07;;;;;;;24.63;33.29;93681.66;5081707;28;20020;-75
2023/08/31 10:05:15;;;;;;;9.15;3.65;;;;;;;24.49;34.03;93660.78;5081628;28;20017;-74
2023/08/31 10:07:42;;;;;;;9.32;3.53;;;;;;;24.36;33.50;93665.19;5081999;28;20016;-74
2023/08/31 10:10:08;;;;;;;7.15;3.05;;;;;;;24.45;33.75;93667.44;5063103;28;20048;-75
2023/08/31 10:12:35;;;;;;;8.27;3.63;;;;;;;24.56;34.03;93659.94;5080781;28;20048;-75
2023/08/31 10:15:01;;;;;;;6.78;3.45;;;;;;;24.60;32.15;93666.13;5062825;28;20218;-74
2023/08/31 10:17:27;;;;;;;9.45;4.50;;;;;;;24.61;32.37;93660.28;5062491;28;20202;-74
2023/08/31 10:19:55;;;;;;;7.28;3.97;;;;;;;24.78;32.50;93671.38;5080480;28;20123;-74
2023/08/31 10:22:21;;;;;;;9.45;4.72;;;;;;;24.83;31.83;93668.97;5080584;28;20013;-75
2023/08/31 10:25:03;;;;;;;5.35;3.05;;;;;;;25.12;32.39;93670.53;5081081;28;20027;-74
2023/08/31 10:27:36;;;;;;;6.43;3.92;;;;;;;25.32;31.03;93676.13;5082375;28;20024;-76
2023/08/31 10:30:25;;;;;;;10.18;3.90;;;;;;;25.52;31.48;93678.94;5082370;28;20032;-76
2023/08/31 10:33:09;;;;;;;6.05;3.65;;;;;;;25.58;30.93;93661.69;5082394;28;20025;-74
2023/08/31 10:35:51;;;;;;;7.45;3.55;;;;;;;25.75;30.35;93668.06;5082465;28;20074;-76
2023/08/31 10:38:25;;;;;;;7.60;4.15;;;;;;;25.80;30.41;93675.00;5082383;28;20032;-76
2023/08/31 10:41:06;;;;;;;9.07;4.38;;;;;;;25.68;30.47;93681.81;5082424;28;20020;-74
2023/08/31 10:43:57;;;;;;;5.60;3.15;;;;;;;25.52;29.93;93689.88;5082223;28;20031;-74
2023/08/31 10:46:33;;;;;;;8.98;4.07;;;;;;;25.49;31.10;93685.25;5082132;28;20031;-74
2023/08/31 10:49:00;;;;;;;10.82;4.03;;;;;;;25.66;31.35;93688.88;5082027;28;20306;-73
2023/08/31 10:51:32;;;;;;;9.57;3.78;;;;;;;25.74;29.65;93680.16;5081959;28;20192;-75
2023/08/31 10:54:20;;;;;;;;;;;;;;;25.82;29.45;93684.31;5064637;28;20070;-73
2023/08/31 10:56:54;;;;;;;8.40;3.92;;;;;;;25.91;30.24;93688.50;5064805;28;19904;-73
2023/08/31 10:59:21;;;;;;;6.28;3.65;;;;;;;26.02;30.52;93689.09;5085725;28;20040;-74
2023/08/31 11:02:04;;;;;;;6.63;3.83;;;;;;;26.14;29.75;93683.06;5085996;28;20016;-73
2023/08/31 11:04:30;;;;;;;6.38;3.53;;;;;;;26.00;29.62;93688.75;5067707;28;20315;-74
2023/08/31 11:07:15;;;;;;;8.93;3.65;;;;;;;25.83;30.39;93694.06;5085803;28;20047;-74
2023/08/31 11:09:42;;;;;;;6.30;3.58;;;;;;;25.80;30.55;93700.34;5085651;28;20031;-74
2023/08/31 11:12:08;;;;;;;4.90;2.58;;;;;;;25.79;30.13;93682.44;5085419;28;20111;-74
2023/08/31 11:14:33;;;;;;;6.95;2.75;;;;;;;25.99;30.45;93695.38;5085743;28;20021;-74
2023/08/31 11:17:00;;;;;;;9.20;4.03;;;;;;;25.99;31.60;93698.13;5085608;28;20126;-74
2023/08/31 11:19:27;;;;;;;9.73;3.25;;;;;;;25.94;32.19;93695.88;5085478;28;20200;-74
2023/08/31 11:21:54;;;;;;;8.63;3.58;;;;;;;25.80;31.61;93703.06;5085205;28;20024;-75
2023/08/31 11:24:21;;;;;;;5.20;2.92;;;;;;;25.87;32.00;93695.94;5085452;28;20021;-74
2023/08/31 11:26:51;;;;;;;6.72;3.47;;;;;;;25.93;31.69;93692.38;5085465;28;20024;-75
2023/08/31 11:29:17;;;;;;;6.97;3.20;;;;;;;25.95;31.82;93687.28;5084270;28;20028;-75
2023/08/31 11:31:43;;;;;;;6.63;3.30;;;;;;;25.92;31.27;93687.34;5085481;28;20096;-75
2023/08/31 11:34:16;;;;;;;8.00;3.42;;;;;;;25.98;30.94;93696.59;5085462;28;20016;-75
2023/08/31 11:36:42;;;;;;;9.98;3.00;;;;;;;26.00;30.86;93688.75;5067416;28;20098;-74